createdAt,value
2022-11-12T10:20:32.500Z,58.34
2022-11-12T10:23:28.523Z,57.73
2022-11-12T10:26:20.801Z,57.62
2022-11-12T10:29:10.868Z,57.63
2022-11-12T10:32:01.689Z,57.73
2022-11-12T10:34:48.962Z,57.87
2022-11-12T10:37:58.882Z,57.16
2022-11-12T10:40:45.398Z,57.26
2022-11-12T10:43:32.921Z,57.42
2022-11-12T10:46:32.918Z,57.01
2022-11-12T10:49:19.461Z,56.68
2022-11-12T10:52:23.738Z,56.16
2022-11-12T10:55:21.298Z,56.78
2022-11-12T10:58:15.745Z,56.34
2022-11-12T11:01:05.138Z,56.41
2022-11-12T11:03:57.517Z,56.29
2022-11-12T11:06:45.049Z,56.56
2022-11-12T11:09:32.902Z,56.67
2022-11-12T11:12:29.350Z,57.02
2022-11-12T11:15:21.565Z,55.94
2022-11-12T11:18:14.335Z,56.02
2022-11-12T11:21:07.879Z,57.05
2022-11-12T11:24:12.410Z,56.62
2022-11-12T11:27:02.978Z,56.91
2022-11-12T11:29:55.864Z,56.59
2022-11-12T11:32:53.694Z,55.88
2022-11-12T11:35:45.759Z,54.60
2022-11-12T11:38:58.498Z,53.87
2022-11-12T11:42:10.559Z,53.26
2022-11-12T11:45:17.425Z,52.16
2022-11-12T11:48:16.205Z,51.20
2022-11-12T11:51:24.808Z,51.50
2022-11-12T11:54:12.421Z,50.67
2022-11-12T11:57:02.252Z,49.62
2022-11-12T12:00:13.075Z,48.75
2022-11-12T12:03:06.814Z,47.59
2022-11-12T12:06:13.870Z,47.88
2022-11-12T12:09:07.925Z,48.20
2022-11-12T12:12:11.977Z,49.18
2022-11-12T12:15:31.284Z,48.56
2022-11-12T12:18:21.209Z,48.04
2022-11-12T12:21:22.864Z,47.20
2022-11-12T12:24:20.323Z,48.36
2022-11-12T12:27:16.186Z,48.62
2022-11-12T12:30:14.534Z,49.96
2022-11-12T22:45:17.434Z,93.25
2022-11-12T22:48:03.766Z,93.20
2022-11-12T22:50:50.536Z,93.54
2022-11-12T22:53:36.985Z,93.16
2022-11-12T22:56:25.164Z,93.67
2022-11-12T22:59:12.117Z,93.41
2022-11-12T23:02:00.174Z,93.08
2022-11-12T23:04:46.675Z,92.89
2022-11-12T23:07:33.266Z,92.62
2022-11-12T23:10:19.947Z,92.57
2022-11-12T23:13:06.345Z,92.04
2022-11-12T23:15:53.554Z,91.82
2022-11-12T23:18:40.067Z,91.40
2022-11-12T23:21:29.140Z,91.03
2022-11-12T23:24:15.911Z,90.31
2022-11-12T23:27:02.380Z,90.34
2022-11-12T23:29:49.956Z,90.42
2022-11-12T23:32:36.452Z,90.71
2022-11-12T23:35:23.011Z,90.93
2022-11-12T23:38:09.689Z,91.54
2022-11-12T23:40:57.209Z,91.41
2022-11-12T23:43:44.314Z,91.71
2022-11-12T23:46:30.461Z,91.22
2022-11-12T23:49:16.822Z,91.46
2022-11-12T23:52:03.431Z,91.04
2022-11-12T23:54:50.216Z,91.23
2022-11-12T23:57:36.519Z,90.84
